Webcam

2024/06/24 18:50 EBBR 241850Z 03003KT CAVOK 24/17 Q1017 NOSIG

Webcam

--- Refresh now ---